Time;durP1;ratioP1;P1;durP2;ratioP2;P2;SDS_P1;SDS_P2;PMS_P1;PMS_P2;Temp;Humidity;BMP_temperature;BMP_pressure;BME280_temperature;BME280_humidity;BME280_pressure;Samples;Min_cycle;Max_cycle;Signal;HPM_P1;HPM_P2
2024/01/03 07:11:39;;;;;;;1.50;0.90;;;;;;;;;;5055476;28;20225;-79
2024/01/03 07:14:06;;;;;;;0.73;0.63;;;;;;;;;;5065477;28;20289;-81
2024/01/03 07:16:34;;;;;;;1.73;0.90;;;;;;;;;;5058830;28;20314;-82
2024/01/03 07:19:01;;;;;;;0.80;0.80;;;;;;;;;;5040936;28;20195;-81
2024/01/03 07:21:29;;;;;;;1.50;0.77;;;;;;;;;;5041528;28;20796;-82
2024/01/03 07:23:56;;;;;;;0.65;0.60;;;;;;;;;;5043132;28;20237;-82
2024/01/03 07:26:23;;;;;;;0.82;0.65;;;;;;;;;;5039065;28;20222;-81
2024/01/03 07:28:53;;;;;;;0.80;0.65;;;;;;;;;;5041078;28;20280;-82
2024/01/03 07:31:20;;;;;;;0.88;0.82;;;;;;;;;;5042199;28;20641;-82
2024/01/03 07:33:47;;;;;;;2.03;0.70;;;;;;;;;;5043134;28;20289;-82
2024/01/03 07:36:15;;;;;;;1.17;1.13;;;;;;;;;;5039719;28;20293;-81
2024/01/03 07:38:44;;;;;;;2.35;0.90;;;;;;;;;;5041772;28;20289;-83
2024/01/03 07:41:12;;;;;;;2.88;0.80;;;;;;;;;;5043177;28;20658;-82
2024/01/03 07:43:39;;;;;;;1.98;0.80;;;;;;;;;;5040140;28;20315;-81
2024/01/03 07:46:09;;;;;;;1.52;0.82;;;;;;;;;;5043272;28;20651;-82
2024/01/03 07:48:36;;;;;;;4.50;1.00;;;;;;;;;;5044030;28;20277;-83
2024/01/03 07:51:04;;;;;;;2.20;1.08;;;;;;;;;;5046559;28;20274;-81
2024/01/03 07:53:31;;;;;;;0.90;0.90;;;;;;;;;;5044766;28;20230;-81
2024/01/03 07:55:59;;;;;;;2.00;0.82;;;;;;;;;;5043173;28;20747;-81
2024/01/03 07:58:26;;;;;;;1.73;1.45;;;;;;;;;;5043509;28;20270;-83
2024/01/03 08:00:53;;;;;;;0.77;0.70;;;;;;;;;;5044407;28;20275;-82
2024/01/03 08:03:22;;;;;;;0.77;0.77;;;;;;;;;;5044070;28;20225;-82
2024/01/03 08:05:50;;;;;;;2.92;1.00;;;;;;;;;;5044054;28;20207;-83
2024/01/03 08:08:17;;;;;;;1.17;1.00;;;;;;;;;;5038572;28;20566;-82
2024/01/03 08:10:45;;;;;;;0.70;0.70;;;;;;;;;;5040761;28;20242;-82
2024/01/03 08:13:12;;;;;;;1.20;1.10;;;;;;;;;;5042654;28;20293;-81
2024/01/03 08:15:41;;;;;;;1.88;0.90;;;;;;;;;;5040599;28;20207;-80
2024/01/03 08:18:09;;;;;;;2.17;0.80;;;;;;;;;;5046380;28;20222;-81
2024/01/03 08:20:38;;;;;;;1.52;0.90;;;;;;;;;;5045648;28;20644;-80
2024/01/03 08:23:15;;;;;;;0.77;0.77;;;;;;;;;;5046497;28;20305;-81
2024/01/03 08:28:36;;;;;;;1.42;0.85;;;;;;;;;;5041224;28;20213;-83
2024/01/03 08:31:04;;;;;;;3.75;1.30;;;;;;;;;;5044467;28;20559;-83
2024/01/03 08:33:34;;;;;;;1.38;0.77;;;;;;;;;;5038438;28;20234;-84
2024/01/03 08:36:03;;;;;;;1.77;1.30;;;;;;;;;;5038186;28;20206;-83
2024/01/03 08:38:31;;;;;;;2.67;1.20;;;;;;;;;;5038224;28;20198;-83
2024/01/03 08:40:58;;;;;;;0.90;0.88;;;;;;;;;;5037358;28;20248;-83
2024/01/03 08:43:25;;;;;;;2.35;1.20;;;;;;;;;;5037597;28;20210;-83
2024/01/03 08:45:53;;;;;;;2.83;1.10;;;;;;;;;;5036793;28;20217;-83
2024/01/03 08:48:20;;;;;;;2.50;1.10;;;;;;;;;;5036751;28;20230;-83
2024/01/03 08:50:48;;;;;;;3.40;2.03;;;;;;;;;;5037648;28;20678;-82
2024/01/03 08:53:16;;;;;;;2.13;1.15;;;;;;;;;;5037634;28;20297;-83
2024/01/03 08:55:44;;;;;;;2.60;1.10;;;;;;;;;;5036998;28;20198;-84
2024/01/03 08:58:11;;;;;;;1.05;0.95;;;;;;;;;;5036566;28;20240;-83
2024/01/03 09:00:42;;;;;;;0.82;0.82;;;;;;;;;;5034703;28;20205;-82
2024/01/03 09:03:09;;;;;;;1.35;0.90;;;;;;;;;;5038035;28;20213;-82
2024/01/03 09:05:37;;;;;;;3.08;1.10;;;;;;;;;;5037496;28;20241;-84
2024/01/03 09:08:05;;;;;;;1.15;0.93;;;;;;;;;;5037411;28;20230;-83
2024/01/03 09:10:35;;;;;;;3.75;1.77;;;;;;;;;;5037431;28;20305;-82
2024/01/03 09:13:02;;;;;;;2.33;1.35;;;;;;;;;;5037220;28;20206;-83
2024/01/03 09:15:30;;;;;;;2.50;1.20;;;;;;;;;;5037078;28;20213;-82
2024/01/03 09:17:57;;;;;;;3.40;1.13;;;;;;;;;;5037812;28;20250;-83
2024/01/03 09:20:25;;;;;;;3.85;1.20;;;;;;;;;;5037419;28;20261;-84
2024/01/03 09:22:53;;;;;;;1.55;1.33;;;;;;;;;;5037155;28;20230;-84
2024/01/03 09:25:20;;;;;;;1.27;1.17;;;;;;;;;;5038372;28;20665;-83
2024/01/03 09:27:49;;;;;;;0.80;0.80;;;;;;;;;;5037026;28;20309;-83
2024/01/03 09:30:17;;;;;;;1.73;0.90;;;;;;;;;;5035302;28;20230;-84
2024/01/03 09:32:45;;;;;;;2.53;0.90;;;;;;;;;;5041301;28;20210;-83
2024/01/03 09:35:12;;;;;;;0.88;0.75;;;;;;;;;;5036888;28;20212;-83
2024/01/03 09:37:40;;;;;;;0.70;0.60;;;;;;;;;;5035094;28;20218;-84
2024/01/03 09:40:10;;;;;;;1.75;1.25;;;;;;;;;;5038035;28;20730;-83
2024/01/03 09:42:37;;;;;;;2.85;1.17;;;;;;;;;;5037700;28;20210;-84
2024/01/03 09:45:08;;;;;;;1.38;1.15;;;;;;;;;;5036019;28;20208;-83
2024/01/03 09:47:36;;;;;;;2.30;1.00;;;;;;;;;;5037511;28;20312;-83
2024/01/03 09:50:03;;;;;;;2.17;0.95;;;;;;;;;;5037110;28;20612;-83
2024/01/03 09:52:31;;;;;;;1.65;0.90;;;;;;;;;;5036829;28;20285;-83
2024/01/03 09:54:58;;;;;;;1.83;0.90;;;;;;;;;;5037240;28;20293;-83
2024/01/03 09:57:26;;;;;;;0.98;0.73;;;;;;;;;;5037937;28;20226;-83
2024/01/03 09:59:56;;;;;;;2.28;1.00;;;;;;;;;;5037370;28;20294;-83
2024/01/03 10:02:27;;;;;;;1.10;0.98;;;;;;;;;;5037315;28;20659;-83
2024/01/03 10:04:55;;;;;;;2.97;0.90;;;;;;;;;;5036889;28;20233;-83
2024/01/03 10:07:33;;;;;;;2.00;1.02;;;;;;;;;;5037098;28;20281;-83
2024/01/03 10:10:00;;;;;;;0.75;0.75;;;;;;;;;;5036757;28;20221;-83
2024/01/03 10:12:33;;;;;;;5.07;1.70;;;;;;;;;;5037481;28;20666;-83
2024/01/03 10:15:16;;;;;;;1.63;0.93;;;;;;;;;;5037031;28;20208;-83
2024/01/03 10:17:46;;;;;;;1.80;1.30;;;;;;;;;;5037453;28;20226;-83
2024/01/03 10:20:25;;;;;;;1.50;1.27;;;;;;;;;;5037043;28;20583;-82
2024/01/03 10:23:06;;;;;;;1.42;0.88;;;;;;;;;;5036770;28;20261;-84
2024/01/03 10:25:34;;;;;;;1.17;0.90;;;;;;;;;;5037058;28;20222;-84
2024/01/03 10:28:03;;;;;;;2.28;1.02;;;;;;;;;;5036425;28;20601;-84
2024/01/03 10:30:31;;;;;;;1.10;1.00;;;;;;;;;;5038655;28;20250;-83
2024/01/03 10:33:00;;;;;;;1.27;0.90;;;;;;;;;;5041749;28;20694;-82
2024/01/03 10:35:29;;;;;;;1.25;0.85;;;;;;;;;;5042573;28;20229;-82
2024/01/03 10:37:59;;;;;;;1.63;1.00;;;;;;;;;;5036698;28;20309;-84
2024/01/03 10:40:28;;;;;;;1.35;1.00;;;;;;;;;;5037009;28;20230;-83
2024/01/03 10:42:55;;;;;;;3.78;1.23;;;;;;;;;;5037249;28;20205;-84
2024/01/03 10:45:24;;;;;;;2.80;1.58;;;;;;;;;;5037874;28;20213;-84
2024/01/03 10:47:52;;;;;;;1.67;0.90;;;;;;;;;;5038057;28;20294;-84
2024/01/03 10:50:21;;;;;;;2.55;1.27;;;;;;;;;;5037186;28;20232;-83
2024/01/03 10:52:49;;;;;;;1.63;1.17;;;;;;;;;;5036700;28;20623;-83
2024/01/03 10:55:22;;;;;;;3.53;1.55;;;;;;;;;;5036943;28;20285;-82
2024/01/03 10:57:58;;;;;;;2.78;1.00;;;;;;;;;;5036543;28;20218;-82
2024/01/03 11:00:44;;;;;;;5.22;1.00;;;;;;;;;;5037734;28;20835;-83
2024/01/03 11:03:23;;;;;;;1.27;1.13;;;;;;;;;;5036284;28;20205;-83
2024/01/03 11:06:04;;;;;;;1.33;0.80;;;;;;;;;;5035065;28;20229;-82
2024/01/03 11:08:40;;;;;;;2.33;1.08;;;;;;;;;;5036878;28;20206;-85
2024/01/03 11:11:08;;;;;;;1.00;0.90;;;;;;;;;;5036189;28;20732;-82
2024/01/03 11:13:36;;;;;;;1.90;1.20;;;;;;;;;;5035983;28;20293;-83
2024/01/03 11:16:05;;;;;;;0.95;0.80;;;;;;;;;;5035368;28;20202;-82
2024/01/03 11:18:52;;;;;;;3.85;1.30;;;;;;;;;;5036073;28;20202;-83
2024/01/03 11:21:43;;;;;;;0.98;0.77;;;;;;;;;;5034956;28;20543;-83
2024/01/03 11:24:54;;;;;;;0.93;0.82;;;;;;;;;;5024997;28;20293;-83
2024/01/03 11:27:25;;;;;;;3.15;1.02;;;;;;;;;;5016499;28;20221;-82
2024/01/03 11:29:57;;;;;;;2.00;0.80;;;;;;;;;;5035680;28;20225;-82
2024/01/03 11:32:33;;;;;;;1.30;0.75;;;;;;;;;;5033723;28;20590;-82
2024/01/03 11:35:01;;;;;;;1.05;0.77;;;;;;;;;;5033028;28;20724;-82
2024/01/03 11:37:36;;;;;;;3.75;1.73;;;;;;;;;;5035349;28;20321;-82
2024/01/03 11:40:06;;;;;;;2.83;1.20;;;;;;;;;;5033580;28;20334;-82
2024/01/03 11:42:37;;;;;;;1.50;0.90;;;;;;;;;;5035890;28;20203;-83
2024/01/03 11:45:08;;;;;;;1.65;1.20;;;;;;;;;;5034878;28;20273;-83
2024/01/03 11:47:37;;;;;;;3.80;1.20;;;;;;;;;;5039938;28;20249;-83
2024/01/03 11:50:08;;;;;;;1.35;0.95;;;;;;;;;;5040083;28;20297;-83
2024/01/03 11:52:38;;;;;;;0.60;0.60;;;;;;;;;;5039733;28;20619;-82
2024/01/03 11:55:10;;;;;;;1.27;0.70;;;;;;;;;;5039700;28;20597;-82
2024/01/03 11:57:43;;;;;;;2.17;0.90;;;;;;;;;;5039314;28;20268;-82
2024/01/03 12:00:13;;;;;;;1.48;1.20;;;;;;;;;;5039757;28;20202;-84
2024/01/03 12:02:51;;;;;;;3.33;1.13;;;;;;;;;;5033696;28;20239;-83
2024/01/03 12:05:20;;;;;;;2.72;1.17;;;;;;;;;;5038907;28;20206;-83
2024/01/03 12:07:49;;;;;;;2.22;0.77;;;;;;;;;;5039137;28;20680;-83
2024/01/03 12:10:17;;;;;;;1.65;0.98;;;;;;;;;;5039069;28;20210;-83
2024/01/03 12:12:46;;;;;;;1.95;0.90;;;;;;;;;;5038702;28;20234;-82
2024/01/03 12:15:23;;;;;;;1.73;1.48;;;;;;;;;;5038942;28;20209;-82
2024/01/03 12:17:51;;;;;;;1.58;0.90;;;;;;;;;;5039196;28;20234;-82
2024/01/03 12:20:20;;;;;;;3.63;1.20;;;;;;;;;;5039793;28;20210;-83
2024/01/03 12:22:49;;;;;;;0.60;0.60;;;;;;;;;;5039385;28;20297;-83
2024/01/03 12:25:27;;;;;;;1.38;1.00;;;;;;;;;;5039425;28;20578;-82
2024/01/03 12:27:56;;;;;;;1.25;1.00;;;;;;;;;;5036113;28;20230;-83
2024/01/03 12:30:24;;;;;;;1.13;1.00;;;;;;;;;;5036446;28;20598;-82
2024/01/03 12:32:57;;;;;;;1.10;0.88;;;;;;;;;;5038736;28;20313;-83
2024/01/03 12:35:24;;;;;;;1.45;0.90;;;;;;;;;;5035587;28;20233;-83
2024/01/03 12:37:53;;;;;;;0.70;0.70;;;;;;;;;;5038470;28;20607;-83
2024/01/03 12:40:21;;;;;;;0.88;0.70;;;;;;;;;;5035451;28;20210;-83
2024/01/03 12:42:48;;;;;;;0.60;0.40;;;;;;;;;;5038551;28;20210;-83
2024/01/03 12:45:16;;;;;;;0.52;0.52;;;;;;;;;;5038453;28;20218;-83
2024/01/03 12:47:43;;;;;;;2.42;0.90;;;;;;;;;;5038214;28;20231;-83
2024/01/03 12:50:11;;;;;;;0.88;0.80;;;;;;;;;;5037436;28;20278;-83
2024/01/03 12:52:38;;;;;;;1.42;0.68;;;;;;;;;;5038500;28;20321;-83
2024/01/03 12:55:09;;;;;;;0.70;0.57;;;;;;;;;;5037956;28;20229;-83
2024/01/03 12:57:36;;;;;;;1.40;0.80;;;;;;;;;;5036794;28;20249;-83
2024/01/03 13:00:06;;;;;;;1.23;0.57;;;;;;;;;;5034923;28;20442;-83
2024/01/03 13:02:33;;;;;;;1.42;0.80;;;;;;;;;;5038469;28;20213;-82
2024/01/03 13:05:01;;;;;;;1.40;0.85;;;;;;;;;;5038120;28;20206;-82
2024/01/03 13:07:28;;;;;;;2.17;1.00;;;;;;;;;;5038127;28;20322;-82
2024/01/03 13:09:56;;;;;;;1.20;1.08;;;;;;;;;;5038009;28;20293;-82
2024/01/03 13:12:25;;;;;;;3.08;1.10;;;;;;;;;;5036505;28;20232;-82
2024/01/03 13:14:52;;;;;;;1.92;0.98;;;;;;;;;;5037776;28;20305;-82
2024/01/03 13:17:21;;;;;;;3.67;1.80;;;;;;;;;;5037824;28;20294;-82
2024/01/03 13:19:48;;;;;;;2.95;1.23;;;;;;;;;;5038125;28;20210;-82
2024/01/03 13:22:16;;;;;;;2.05;1.35;;;;;;;;;;5037381;28;20206;-82
2024/01/03 13:24:43;;;;;;;2.35;1.17;;;;;;;;;;5037823;28;20230;-82
2024/01/03 13:27:11;;;;;;;0.95;0.85;;;;;;;;;;5036327;28;20765;-82
2024/01/03 13:29:39;;;;;;;1.75;0.77;;;;;;;;;;5036950;28;20205;-82
2024/01/03 13:32:08;;;;;;;2.53;0.95;;;;;;;;;;5037285;28;20230;-82
2024/01/03 13:34:37;;;;;;;1.52;0.95;;;;;;;;;;5037837;28;20210;-82
2024/01/03 13:37:05;;;;;;;2.30;1.00;;;;;;;;;;5031865;28;20240;-83
2024/01/03 13:39:33;;;;;;;3.55;1.38;;;;;;;;;;5037891;28;20229;-82
2024/01/03 13:42:02;;;;;;;1.67;0.95;;;;;;;;;;5037056;28;20660;-82
2024/01/03 13:44:29;;;;;;;3.28;1.30;;;;;;;;;;5037243;28;20206;-82
2024/01/03 13:46:58;;;;;;;1.55;1.05;;;;;;;;;;5037466;28;20269;-82
2024/01/03 13:49:26;;;;;;;1.08;0.98;;;;;;;;;;5037871;28;20198;-82
2024/01/03 13:51:55;;;;;;;5.03;1.65;;;;;;;;;;5036598;28;20262;-82
2024/01/03 13:54:23;;;;;;;2.33;0.70;;;;;;;;;;5031188;28;20600;-82
2024/01/03 13:56:51;;;;;;;1.95;1.00;;;;;;;;;;5036808;28;20698;-83
2024/01/03 13:59:19;;;;;;;2.15;0.90;;;;;;;;;;5036254;28;20236;-83
2024/01/03 14:01:48;;;;;;;2.58;1.25;;;;;;;;;;5036875;28;20421;-82
2024/01/03 14:04:19;;;;;;;2.33;1.13;;;;;;;;;;5037478;28;20657;-82
2024/01/03 14:06:46;;;;;;;2.47;1.30;;;;;;;;;;5037304;28;20233;-83
2024/01/03 14:09:14;;;;;;;1.58;0.80;;;;;;;;;;5036469;28;20268;-82
2024/01/03 14:11:42;;;;;;;1.55;1.00;;;;;;;;;;5033762;28;20207;-82
2024/01/03 14:14:09;;;;;;;1.70;1.10;;;;;;;;;;5036356;28;20213;-82
2024/01/03 14:16:37;;;;;;;1.23;0.80;;;;;;;;;;5035881;28;20309;-82
2024/01/03 14:19:05;;;;;;;2.38;1.27;;;;;;;;;;5033719;28;20199;-82
2024/01/03 14:21:34;;;;;;;1.40;0.98;;;;;;;;;;5036850;28;20230;-81
2024/01/03 14:24:01;;;;;;;2.38;1.75;;;;;;;;;;5036664;28;20262;-81
2024/01/03 14:26:28;;;;;;;1.33;0.90;;;;;;;;;;5036179;28;20252;-81
2024/01/03 14:28:56;;;;;;;1.17;1.00;;;;;;;;;;5036547;28;20297;-82
2024/01/03 14:31:25;;;;;;;1.77;0.95;;;;;;;;;;5035910;28;20297;-81
2024/01/03 14:33:53;;;;;;;3.22;1.30;;;;;;;;;;5036591;28;20235;-83
2024/01/03 14:36:20;;;;;;;2.47;1.50;;;;;;;;;;5036677;28;20302;-82
2024/01/03 14:38:49;;;;;;;1.30;0.90;;;;;;;;;;5036111;28;20654;-82
2024/01/03 14:41:19;;;;;;;0.93;0.90;;;;;;;;;;5037072;28;20206;-82
2024/01/03 14:43:47;;;;;;;3.10;0.90;;;;;;;;;;5036653;28;20617;-82
2024/01/03 14:46:17;;;;;;;2.22;1.23;;;;;;;;;;5037159;28;20241;-82
2024/01/03 14:48:44;;;;;;;1.60;0.90;;;;;;;;;;5036571;28;20687;-82
2024/01/03 14:51:12;;;;;;;2.40;1.20;;;;;;;;;;5036022;28;20389;-81
2024/01/03 14:53:39;;;;;;;1.85;1.10;;;;;;;;;;5035719;28;20257;-82
2024/01/03 14:56:08;;;;;;;1.70;1.00;;;;;;;;;;5036661;28;20297;-82
2024/01/03 14:58:36;;;;;;;1.00;0.80;;;;;;;;;;5036456;28;20257;-82
2024/01/03 15:01:05;;;;;;;2.17;1.17;;;;;;;;;;5036027;28;20297;-81
2024/01/03 15:03:32;;;;;;;1.15;1.00;;;;;;;;;;5036797;28;20198;-82
2024/01/03 15:06:00;;;;;;;1.15;1.00;;;;;;;;;;5036606;28;20713;-82
2024/01/03 15:08:27;;;;;;;1.65;1.30;;;;;;;;;;5036017;28;20278;-81
2024/01/03 15:10:56;;;;;;;2.35;0.98;;;;;;;;;;5036341;28;20217;-82
2024/01/03 15:13:24;;;;;;;2.17;1.00;;;;;;;;;;5033928;28;20317;-81
2024/01/03 15:15:52;;;;;;;1.77;1.20;;;;;;;;;;5036014;28;20233;-81
2024/01/03 15:18:20;;;;;;;4.15;2.08;;;;;;;;;;5035884;28;20230;-82
2024/01/03 15:20:47;;;;;;;2.47;1.05;;;;;;;;;;5038367;28;20230;-81
2024/01/03 15:23:17;;;;;;;2.20;1.20;;;;;;;;;;5040572;28;20206;-81
2024/01/03 15:25:45;;;;;;;1.73;1.55;;;;;;;;;;5040782;28;20210;-81
2024/01/03 15:28:15;;;;;;;1.17;1.00;;;;;;;;;;5040872;28;20222;-82
2024/01/03 15:30:44;;;;;;;1.17;1.08;;;;;;;;;;5040620;28;20682;-81
2024/01/03 15:33:12;;;;;;;1.00;0.75;;;;;;;;;;5039894;28;20229;-82
2024/01/03 15:35:39;;;;;;;1.45;1.30;;;;;;;;;;5040294;28;20270;-82
2024/01/03 15:38:06;;;;;;;1.38;1.08;;;;;;;;;;5039692;28;20268;-81
2024/01/03 15:40:34;;;;;;;1.52;1.00;;;;;;;;;;5039234;28;20285;-84
2024/01/03 15:43:01;;;;;;;1.77;0.95;;;;;;;;;;5039952;28;20218;-82
2024/01/03 15:45:29;;;;;;;2.42;1.15;;;;;;;;;;5038930;28;20225;-81
2024/01/03 15:47:58;;;;;;;1.38;1.15;;;;;;;;;;5039056;28;20325;-82
2024/01/03 15:50:25;;;;;;;1.73;1.05;;;;;;;;;;5039764;28;20245;-81
2024/01/03 15:52:53;;;;;;;1.85;1.30;;;;;;;;;;5039494;28;20233;-81
2024/01/03 15:55:20;;;;;;;2.85;1.10;;;;;;;;;;5039862;28;20234;-82
2024/01/03 15:57:48;;;;;;;1.48;1.00;;;;;;;;;;5039342;28;20644;-82
2024/01/03 16:00:16;;;;;;;0.88;0.88;;;;;;;;;;5038830;28;20212;-82
2024/01/03 16:02:44;;;;;;;0.80;0.80;;;;;;;;;;5038775;28;20249;-82
2024/01/03 16:05:14;;;;;;;3.25;1.15;;;;;;;;;;5037940;28;20212;-82
2024/01/03 16:07:42;;;;;;;1.30;1.15;;;;;;;;;;5039296;28;20222;-83
2024/01/03 16:10:10;;;;;;;0.90;0.90;;;;;;;;;;5038811;28;20656;-83
2024/01/03 16:12:37;;;;;;;1.23;1.00;;;;;;;;;;5038571;28;20293;-83
2024/01/03 16:15:06;;;;;;;1.67;1.10;;;;;;;;;;5038314;28;20321;-83
2024/01/03 16:17:33;;;;;;;0.98;0.95;;;;;;;;;;5038840;28;20230;-82
2024/01/03 16:20:00;;;;;;;1.45;1.05;;;;;;;;;;5039181;28;20289;-83
2024/01/03 16:22:31;;;;;;;3.03;1.25;;;;;;;;;;5038913;28;20301;-82
2024/01/03 16:24:59;;;;;;;1.33;1.00;;;;;;;;;;5038829;28;20214;-83
2024/01/03 16:27:26;;;;;;;0.80;0.80;;;;;;;;;;5035911;28;20599;-83
2024/01/03 16:29:54;;;;;;;2.00;0.80;;;;;;;;;;5038036;28;20676;-82
2024/01/03 16:32:23;;;;;;;1.17;1.13;;;;;;;;;;5038887;28;20206;-83
2024/01/03 16:34:51;;;;;;;0.73;0.73;;;;;;;;;;5038647;28;20233;-82
2024/01/03 16:37:18;;;;;;;0.73;0.73;;;;;;;;;;5038781;28;20609;-82
2024/01/03 16:39:47;;;;;;;1.10;0.88;;;;;;;;;;5038580;28;20586;-82
2024/01/03 16:42:15;;;;;;;1.05;0.90;;;;;;;;;;5037083;28;20213;-83
2024/01/03 16:44:43;;;;;;;0.65;0.65;;;;;;;;;;5034616;28;20214;-82
2024/01/03 16:47:10;;;;;;;2.10;0.75;;;;;;;;;;5037611;28;20230;-82
2024/01/03 16:49:38;;;;;;;5.13;1.85;;;;;;;;;;5038129;28;20299;-82
2024/01/03 16:52:06;;;;;;;1.30;1.20;;;;;;;;;;5034869;28;20229;-81
2024/01/03 16:54:33;;;;;;;1.67;1.33;;;;;;;;;;5037842;28;20229;-83
2024/01/03 16:57:03;;;;;;;1.80;1.67;;;;;;;;;;5037686;28;20262;-83
2024/01/03 16:59:31;;;;;;;1.45;1.35;;;;;;;;;;5038222;28;20214;-82
2024/01/03 17:01:58;;;;;;;1.63;1.00;;;;;;;;;;5038168;28;20245;-82
2024/01/03 17:04:26;;;;;;;0.85;0.85;;;;;;;;;;5038493;28;20236;-82
2024/01/03 17:06:54;;;;;;;2.60;1.60;;;;;;;;;;5038184;28;20321;-81
2024/01/03 17:09:22;;;;;;;1.25;1.15;;;;;;;;;;5038367;28;20228;-81
2024/01/03 17:11:50;;;;;;;1.85;1.75;;;;;;;;;;5037855;28;20225;-81
2024/01/03 17:14:19;;;;;;;0.95;0.88;;;;;;;;;;5038255;28;20238;-82
2024/01/03 17:16:46;;;;;;;1.20;1.10;;;;;;;;;;5038404;28;20234;-82
2024/01/03 17:19:14;;;;;;;2.05;1.00;;;;;;;;;;5038244;28;20217;-82
2024/01/03 17:21:41;;;;;;;0.98;0.90;;;;;;;;;;5037666;28;20202;-82
2024/01/03 17:24:09;;;;;;;1.83;0.85;;;;;;;;;;5037353;28;20233;-82
2024/01/03 17:26:36;;;;;;;0.77;0.60;;;;;;;;;;5037278;28;20236;-82
2024/01/03 17:29:05;;;;;;;1.27;1.17;;;;;;;;;;5037483;28;20210;-82
2024/01/03 17:31:35;;;;;;;2.33;0.98;;;;;;;;;;5037381;28;20279;-82
2024/01/03 17:34:02;;;;;;;1.25;0.98;;;;;;;;;;5037903;28;20229;-82
2024/01/03 17:36:30;;;;;;;1.55;0.77;;;;;;;;;;5037174;28;20222;-83
2024/01/03 17:38:58;;;;;;;0.80;0.80;;;;;;;;;;5036571;28;20214;-82
2024/01/03 17:41:26;;;;;;;1.08;1.00;;;;;;;;;;5037098;28;20214;-82
2024/01/03 17:43:55;;;;;;;1.25;1.00;;;;;;;;;;5037025;28;20202;-82
2024/01/03 17:46:23;;;;;;;0.63;0.63;;;;;;;;;;5037584;28;20240;-82
2024/01/03 17:48:51;;;;;;;2.05;0.77;;;;;;;;;;5036555;28;20278;-82
2024/01/03 17:51:19;;;;;;;1.25;0.90;;;;;;;;;;5037700;28;20233;-82
2024/01/03 17:53:47;;;;;;;0.77;0.75;;;;;;;;;;5036617;28;20597;-82
2024/01/03 17:56:19;;;;;;;2.90;1.58;;;;;;;;;;5036548;28;20952;-82
2024/01/03 17:58:47;;;;;;;1.63;1.17;;;;;;;;;;5031735;28;20210;-81
2024/01/03 18:01:15;;;;;;;1.30;1.10;;;;;;;;;;5037654;28;20206;-81
2024/01/03 18:03:42;;;;;;;0.63;0.52;;;;;;;;;;5037548;28;20213;-82
2024/01/03 18:06:11;;;;;;;0.60;0.60;;;;;;;;;;5035821;28;20293;-82
2024/01/03 18:08:39;;;;;;;0.70;0.70;;;;;;;;;;5036663;28;20211;-82
2024/01/03 18:11:06;;;;;;;0.80;0.80;;;;;;;;;;5039937;28;20285;-82
2024/01/03 18:13:33;;;;;;;1.20;0.68;;;;;;;;;;5037606;28;20717;-81
2024/01/03 18:16:01;;;;;;;1.35;1.02;;;;;;;;;;5036134;28;20226;-82
2024/01/03 18:18:28;;;;;;;1.73;1.42;;;;;;;;;;5036965;28;20210;-82
2024/01/03 18:20:56;;;;;;;1.23;0.70;;;;;;;;;;5036577;28;20221;-82
2024/01/03 18:23:25;;;;;;;1.33;0.77;;;;;;;;;;5036500;28;20207;-81
2024/01/03 18:25:52;;;;;;;1.38;0.82;;;;;;;;;;5036251;28;20213;-82
2024/01/03 18:28:20;;;;;;;1.10;1.00;;;;;;;;;;5036667;28;20226;-82
2024/01/03 18:30:48;;;;;;;0.90;0.90;;;;;;;;;;5036290;28;20252;-82
2024/01/03 18:33:17;;;;;;;0.68;0.68;;;;;;;;;;5036272;28;20310;-82
2024/01/03 18:35:44;;;;;;;1.15;1.00;;;;;;;;;;5035913;28;20262;-81
2024/01/03 18:38:13;;;;;;;0.90;0.90;;;;;;;;;;5036493;28;20230;-82
2024/01/03 18:40:42;;;;;;;0.77;0.77;;;;;;;;;;5036576;28;20568;-81
2024/01/03 18:43:10;;;;;;;1.75;0.70;;;;;;;;;;5036733;28;20213;-82
2024/01/03 18:45:37;;;;;;;1.80;1.00;;;;;;;;;;5035430;28;20260;-81
2024/01/03 18:48:06;;;;;;;0.80;0.80;;;;;;;;;;5036604;28;20313;-82
2024/01/03 18:50:33;;;;;;;1.13;0.70;;;;;;;;;;5036224;28;20244;-83
2024/01/03 18:53:01;;;;;;;1.17;1.00;;;;;;;;;;5036094;28;20216;-81
2024/01/03 18:55:30;;;;;;;0.90;0.70;;;;;;;;;;5034986;28;20234;-81
2024/01/03 18:57:59;;;;;;;2.13;0.70;;;;;;;;;;5035667;28;20230;-81
2024/01/03 19:00:28;;;;;;;1.88;0.60;;;;;;;;;;5034956;28;20213;-81
2024/01/03 19:02:55;;;;;;;2.22;1.15;;;;;;;;;;5035785;28;20264;-81
2024/01/03 19:05:28;;;;;;;10.60;2.25;;;;;;;;;;5036410;28;20777;-82
2024/01/03 19:07:56;;;;;;;1.45;1.35;;;;;;;;;;5035866;28;20706;-82
2024/01/03 19:10:23;;;;;;;1.27;1.00;;;;;;;;;;5035445;28;20237;-82
2024/01/03 19:12:50;;;;;;;1.15;1.05;;;;;;;;;;5035448;28;20754;-82
2024/01/03 19:15:22;;;;;;;1.35;1.00;;;;;;;;;;5036273;28;20313;-82
2024/01/03 19:17:49;;;;;;;1.50;1.40;;;;;;;;;;5037247;28;20234;-82
2024/01/03 19:20:17;;;;;;;1.30;0.80;;;;;;;;;;5036628;28;20210;-82
2024/01/03 19:22:44;;;;;;;1.05;0.98;;;;;;;;;;5035808;28;20293;-82
2024/01/03 19:25:13;;;;;;;0.70;0.70;;;;;;;;;;5035635;28;20206;-82
2024/01/03 19:27:41;;;;;;;0.85;0.85;;;;;;;;;;5035180;28;20226;-82
2024/01/03 19:30:10;;;;;;;0.93;0.90;;;;;;;;;;5035734;28;20218;-82
2024/01/03 19:32:39;;;;;;;2.80;1.00;;;;;;;;;;5035020;28;20214;-82
2024/01/03 19:35:07;;;;;;;2.50;1.00;;;;;;;;;;5035469;28;20210;-83
2024/01/03 19:37:35;;;;;;;1.17;0.77;;;;;;;;;;5035896;28;20257;-83
2024/01/03 19:40:02;;;;;;;1.83;1.05;;;;;;;;;;5036077;28;20218;-83
2024/01/03 19:42:30;;;;;;;1.98;1.40;;;;;;;;;;5036171;28;20210;-83
2024/01/03 19:44:57;;;;;;;3.08;0.90;;;;;;;;;;5035643;28;20217;-83
2024/01/03 19:47:25;;;;;;;1.30;1.20;;;;;;;;;;5035591;28;20226;-82
2024/01/03 19:49:54;;;;;;;1.40;1.25;;;;;;;;;;5036123;28;20210;-82
2024/01/03 19:52:21;;;;;;;1.15;0.90;;;;;;;;;;5036424;28;20662;-82
2024/01/03 19:54:49;;;;;;;1.25;0.80;;;;;;;;;;5036342;28;20690;-82
2024/01/03 19:57:17;;;;;;;1.52;1.13;;;;;;;;;;5035911;28;20652;-82
2024/01/03 19:59:46;;;;;;;0.85;0.77;;;;;;;;;;5036434;28;20685;-83
2024/01/03 20:02:14;;;;;;;1.70;1.05;;;;;;;;;;5036375;28;20206;-82
2024/01/03 20:04:41;;;;;;;0.98;0.80;;;;;;;;;;5036082;28;20210;-82
2024/01/03 20:07:10;;;;;;;0.68;0.68;;;;;;;;;;5038687;28;20222;-83
2024/01/03 20:09:37;;;;;;;1.27;0.90;;;;;;;;;;5039953;28;20658;-83
2024/01/03 20:12:06;;;;;;;1.83;1.30;;;;;;;;;;5039796;28;20650;-82
2024/01/03 20:14:34;;;;;;;0.95;0.77;;;;;;;;;;5039934;28;20309;-82
2024/01/03 20:17:02;;;;;;;1.65;1.10;;;;;;;;;;5039709;28;20317;-82
2024/01/03 20:19:29;;;;;;;1.20;0.82;;;;;;;;;;5039567;28;20241;-82
2024/01/03 20:21:57;;;;;;;0.82;0.82;;;;;;;;;;5039396;28;20312;-82
2024/01/03 20:24:26;;;;;;;2.05;1.27;;;;;;;;;;5039017;28;20215;-82
2024/01/03 20:26:54;;;;;;;0.93;0.90;;;;;;;;;;5039515;28;20639;-82
2024/01/03 20:29:22;;;;;;;1.35;1.25;;;;;;;;;;5050037;28;20312;-82
2024/01/03 20:31:52;;;;;;;0.93;0.93;;;;;;;;;;5041498;28;20241;-82
2024/01/03 20:34:20;;;;;;;1.80;1.02;;;;;;;;;;5039103;28;20218;-82
2024/01/03 20:36:48;;;;;;;1.15;1.02;;;;;;;;;;5039679;28;20261;-83
2024/01/03 20:39:15;;;;;;;1.63;1.10;;;;;;;;;;5038595;28;20211;-82
2024/01/03 20:41:45;;;;;;;0.73;0.73;;;;;;;;;;5036224;28;20218;-83
2024/01/03 20:44:13;;;;;;;1.15;1.02;;;;;;;;;;5039027;28;20252;-82
2024/01/03 20:46:41;;;;;;;1.35;0.95;;;;;;;;;;5039578;28;20222;-84
2024/01/03 20:49:10;;;;;;;4.20;1.00;;;;;;;;;;5039406;28;20597;-82
2024/01/03 20:51:37;;;;;;;1.02;0.80;;;;;;;;;;5039826;28;20218;-83
2024/01/03 20:54:05;;;;;;;1.10;1.00;;;;;;;;;;5039575;28;20224;-84
2024/01/03 20:56:33;;;;;;;2.00;1.00;;;;;;;;;;5039505;28;20238;-83
2024/01/03 20:59:01;;;;;;;0.90;0.80;;;;;;;;;;5039163;28;20702;-83
2024/01/03 21:01:29;;;;;;;1.60;1.10;;;;;;;;;;5038760;28;20313;-83
2024/01/03 21:03:56;;;;;;;1.17;0.82;;;;;;;;;;5038861;28;20299;-83
2024/01/03 21:06:24;;;;;;;1.52;1.40;;;;;;;;;;5039427;28;20673;-82
2024/01/03 21:08:52;;;;;;;1.52;1.33;;;;;;;;;;5038891;28;20214;-82
2024/01/03 21:11:19;;;;;;;2.10;1.20;;;;;;;;;;5038224;28;20297;-82
2024/01/03 21:13:47;;;;;;;2.88;1.92;;;;;;;;;;5038622;28;20216;-83
2024/01/03 21:16:17;;;;;;;1.92;0.82;;;;;;;;;;5039461;28;20762;-82
2024/01/03 21:18:44;;;;;;;0.90;0.90;;;;;;;;;;5038266;28;20245;-83
2024/01/03 21:21:11;;;;;;;0.82;0.80;;;;;;;;;;5039302;28;20293;-83
2024/01/03 21:23:39;;;;;;;0.60;0.60;;;;;;;;;;5038864;28;20281;-82
2024/01/03 21:26:14;;;;;;;2.55;1.00;;;;;;;;;;5033537;28;20211;-83
2024/01/03 21:28:41;;;;;;;1.42;0.90;;;;;;;;;;5038679;28;20242;-82
2024/01/03 21:31:09;;;;;;;0.80;0.70;;;;;;;;;;5047595;28;20206;-83
2024/01/03 21:33:38;;;;;;;1.20;0.75;;;;;;;;;;5044781;28;20717;-84
2024/01/03 21:36:07;;;;;;;1.30;0.88;;;;;;;;;;5034742;28;20297;-82
2024/01/03 21:38:34;;;;;;;0.80;0.80;;;;;;;;;;5038926;28;20214;-84
2024/01/03 21:41:03;;;;;;;3.85;1.27;;;;;;;;;;5039283;28;20750;-83
2024/01/03 21:43:30;;;;;;;0.77;0.77;;;;;;;;;;5039841;28;20718;-82
2024/01/03 21:45:57;;;;;;;0.77;0.77;;;;;;;;;;5039110;28;20296;-82
2024/01/03 21:48:25;;;;;;;1.48;0.90;;;;;;;;;;5038491;28;20230;-82
2024/01/03 21:50:55;;;;;;;1.77;0.90;;;;;;;;;;5038559;28;20309;-82
2024/01/03 21:53:22;;;;;;;0.90;0.90;;;;;;;;;;5039469;28;20210;-83
2024/01/03 21:55:50;;;;;;;1.02;1.02;;;;;;;;;;5038501;28;20264;-84
2024/01/03 21:58:17;;;;;;;0.90;0.80;;;;;;;;;;5037918;28;20240;-84
2024/01/03 22:00:45;;;;;;;0.50;0.50;;;;;;;;;;5039314;28;20301;-83
2024/01/03 22:03:12;;;;;;;0.80;0.80;;;;;;;;;;5039848;28;20218;-83
2024/01/03 22:05:39;;;;;;;0.70;0.70;;;;;;;;;;5040333;28;20244;-83